sensor_id;sensor_type;location;lat;lon;timestamp;temperature;humidity
39931;DHT22;26635;-35.248;149.138;2022-07-29T00:00:29;6.80;92.30
39931;DHT22;26635;-35.248;149.138;2022-07-29T00:02:59;7.00;92.50
39931;DHT22;26635;-35.248;149.138;2022-07-29T00:05:31;7.10;91.30
39931;DHT22;26635;-35.248;149.138;2022-07-29T00:08:04;7.20;91.10
39931;DHT22;26635;-35.248;149.138;2022-07-29T00:10:39;7.20;91.30
39931;DHT22;26635;-35.248;149.138;2022-07-29T00:13:10;7.30;91.30
39931;DHT22;26635;-35.248;149.138;2022-07-29T00:15:43;7.50;91.20
39931;DHT22;26635;-35.248;149.138;2022-07-29T00:18:21;7.60;90.90
39931;DHT22;26635;-35.248;149.138;2022-07-29T00:20:51;7.70;90.40
39931;DHT22;26635;-35.248;149.138;2022-07-29T00:23:23;7.80;90.10
39931;DHT22;26635;-35.248;149.138;2022-07-29T00:25:53;7.90;89.80
39931;DHT22;26635;-35.248;149.138;2022-07-29T00:28:24;7.90;88.80
39931;DHT22;26635;-35.248;149.138;2022-07-29T00:30:55;8.00;88.50
39931;DHT22;26635;-35.248;149.138;2022-07-29T00:33:26;8.00;88.60
39931;DHT22;26635;-35.248;149.138;2022-07-29T00:35:56;8.10;88.90
39931;DHT22;26635;-35.248;149.138;2022-07-29T00:38:27;8.20;86.70
39931;DHT22;26635;-35.248;149.138;2022-07-29T00:40:58;8.30;87.10
39931;DHT22;26635;-35.248;149.138;2022-07-29T00:43:28;8.40;86.60
39931;DHT22;26635;-35.248;149.138;2022-07-29T00:45:59;8.60;86.90
39931;DHT22;26635;-35.248;149.138;2022-07-29T00:48:32;8.80;86.90
39931;DHT22;26635;-35.248;149.138;2022-07-29T00:51:04;8.90;86.80
39931;DHT22;26635;-35.248;149.138;2022-07-29T00:53:36;9.10;86.00
39931;DHT22;26635;-35.248;149.138;2022-07-29T00:56:08;9.20;85.50
39931;DHT22;26635;-35.248;149.138;2022-07-29T00:58:40;9.30;83.90
39931;DHT22;26635;-35.248;149.138;2022-07-29T01:01:17;9.40;83.40
39931;DHT22;26635;-35.248;149.138;2022-07-29T01:03:51;9.50;80.00
39931;DHT22;26635;-35.248;149.138;2022-07-29T01:06:24;9.40;79.60
39931;DHT22;26635;-35.248;149.138;2022-07-29T01:08:57;9.50;80.50
39931;DHT22;26635;-35.248;149.138;2022-07-29T01:11:29;9.60;79.30
39931;DHT22;26635;-35.248;149.138;2022-07-29T01:14:02;9.70;78.80
39931;DHT22;26635;-35.248;149.138;2022-07-29T01:16:51;9.80;77.60
39931;DHT22;26635;-35.248;149.138;2022-07-29T01:20:06;9.90;79.50
39931;DHT22;26635;-35.248;149.138;2022-07-29T01:23:01;10.00;79.90
39931;DHT22;26635;-35.248;149.138;2022-07-29T01:35:17;10.50;79.10
39931;DHT22;26635;-35.248;149.138;2022-07-29T01:38:29;10.60;79.70
39931;DHT22;26635;-35.248;149.138;2022-07-29T01:41:02;10.60;78.40
39931;DHT22;26635;-35.248;149.138;2022-07-29T01:43:44;10.70;78.50
39931;DHT22;26635;-35.248;149.138;2022-07-29T01:46:41;10.80;77.30
39931;DHT22;26635;-35.248;149.138;2022-07-29T01:49:24;10.80;77.50
39931;DHT22;26635;-35.248;149.138;2022-07-29T01:52:15;10.90;76.90
39931;DHT22;26635;-35.248;149.138;2022-07-29T01:54:57;10.90;74.90
39931;DHT22;26635;-35.248;149.138;2022-07-29T01:57:36;10.80;74.10
39931;DHT22;26635;-35.248;149.138;2022-07-29T02:00:10;10.70;76.50
39931;DHT22;26635;-35.248;149.138;2022-07-29T02:02:45;10.80;76.90
39931;DHT22;26635;-35.248;149.138;2022-07-29T02:05:20;10.70;75.80
39931;DHT22;26635;-35.248;149.138;2022-07-29T02:07:58;10.80;74.10
39931;DHT22;26635;-35.248;149.138;2022-07-29T02:10:34;10.80;76.50
39931;DHT22;26635;-35.248;149.138;2022-07-29T02:13:13;10.90;76.00
39931;DHT22;26635;-35.248;149.138;2022-07-29T02:15:50;11.00;74.70
39931;DHT22;26635;-35.248;149.138;2022-07-29T02:18:23;11.10;74.10
39931;DHT22;26635;-35.248;149.138;2022-07-29T02:21:05;11.20;74.40
39931;DHT22;26635;-35.248;149.138;2022-07-29T02:23:45;11.30;74.60
39931;DHT22;26635;-35.248;149.138;2022-07-29T02:26:22;11.50;75.30
39931;DHT22;26635;-35.248;149.138;2022-07-29T02:28:56;11.50;73.40
39931;DHT22;26635;-35.248;149.138;2022-07-29T02:31:35;11.50;73.70
39931;DHT22;26635;-35.248;149.138;2022-07-29T02:34:08;11.50;73.40
39931;DHT22;26635;-35.248;149.138;2022-07-29T02:36:48;11.40;73.00
39931;DHT22;26635;-35.248;149.138;2022-07-29T02:39:20;11.30;73.30
39931;DHT22;26635;-35.248;149.138;2022-07-29T02:41:57;11.30;73.70
39931;DHT22;26635;-35.248;149.138;2022-07-29T02:44:31;11.20;73.40
39931;DHT22;26635;-35.248;149.138;2022-07-29T02:47:32;11.20;74.50
39931;DHT22;26635;-35.248;149.138;2022-07-29T02:50:21;11.20;74.20
39931;DHT22;26635;-35.248;149.138;2022-07-29T02:53:14;11.20;74.50
39931;DHT22;26635;-35.248;149.138;2022-07-29T02:55:53;11.00;74.30
39931;DHT22;26635;-35.248;149.138;2022-07-29T02:58:34;10.80;74.90
39931;DHT22;26635;-35.248;149.138;2022-07-29T03:01:22;10.60;75.90
39931;DHT22;26635;-35.248;149.138;2022-07-29T03:03:56;10.50;76.50
39931;DHT22;26635;-35.248;149.138;2022-07-29T03:06:27;10.60;75.50
39931;DHT22;26635;-35.248;149.138;2022-07-29T03:09:07;10.70;75.10
39931;DHT22;26635;-35.248;149.138;2022-07-29T03:11:43;10.90;73.10
39931;DHT22;26635;-35.248;149.138;2022-07-29T03:14:19;11.10;73.20
39931;DHT22;26635;-35.248;149.138;2022-07-29T03:16:52;11.30;72.60
39931;DHT22;26635;-35.248;149.138;2022-07-29T03:19:26;11.40;70.10
39931;DHT22;26635;-35.248;149.138;2022-07-29T03:21:59;11.30;68.90
39931;DHT22;26635;-35.248;149.138;2022-07-29T03:24:34;11.30;69.60
39931;DHT22;26635;-35.248;149.138;2022-07-29T03:27:08;11.40;72.70
39931;DHT22;26635;-35.248;149.138;2022-07-29T03:29:39;11.50;73.50
39931;DHT22;26635;-35.248;149.138;2022-07-29T03:32:17;11.60;73.30
39931;DHT22;26635;-35.248;149.138;2022-07-29T03:34:52;11.70;72.40
39931;DHT22;26635;-35.248;149.138;2022-07-29T03:37:25;11.80;72.00
39931;DHT22;26635;-35.248;149.138;2022-07-29T03:39:57;11.90;69.60
39931;DHT22;26635;-35.248;149.138;2022-07-29T03:42:31;11.80;70.40
39931;DHT22;26635;-35.248;149.138;2022-07-29T03:45:12;11.80;67.10
39931;DHT22;26635;-35.248;149.138;2022-07-29T03:47:51;11.80;68.00
39931;DHT22;26635;-35.248;149.138;2022-07-29T03:50:29;11.80;67.90
39931;DHT22;26635;-35.248;149.138;2022-07-29T03:53:02;11.70;67.50
39931;DHT22;26635;-35.248;149.138;2022-07-29T03:55:50;11.70;68.40
39931;DHT22;26635;-35.248;149.138;2022-07-29T03:58:26;11.70;69.90
39931;DHT22;26635;-35.248;149.138;2022-07-29T04:00:59;11.80;69.00
39931;DHT22;26635;-35.248;149.138;2022-07-29T04:03:31;11.90;68.20
39931;DHT22;26635;-35.248;149.138;2022-07-29T04:06:07;12.00;70.20
39931;DHT22;26635;-35.248;149.138;2022-07-29T04:08:38;12.10;68.50
39931;DHT22;26635;-35.248;149.138;2022-07-29T04:11:10;12.20;68.70
39931;DHT22;26635;-35.248;149.138;2022-07-29T04:13:42;12.20;67.10
39931;DHT22;26635;-35.248;149.138;2022-07-29T04:16:14;12.10;67.00
39931;DHT22;26635;-35.248;149.138;2022-07-29T04:18:45;12.00;66.70
39931;DHT22;26635;-35.248;149.138;2022-07-29T04:21:16;11.80;66.20
39931;DHT22;26635;-35.248;149.138;2022-07-29T04:23:51;11.60;66.10
39931;DHT22;26635;-35.248;149.138;2022-07-29T04:26:23;11.50;66.50
39931;DHT22;26635;-35.248;149.138;2022-07-29T04:28:54;11.30;67.10
39931;DHT22;26635;-35.248;149.138;2022-07-29T04:31:26;11.20;68.50
39931;DHT22;26635;-35.248;149.138;2022-07-29T04:33:58;11.20;70.20
39931;DHT22;26635;-35.248;149.138;2022-07-29T04:36:30;11.10;70.60
39931;DHT22;26635;-35.248;149.138;2022-07-29T04:39:04;11.00;69.20
39931;DHT22;26635;-35.248;149.138;2022-07-29T04:41:36;10.90;70.50
39931;DHT22;26635;-35.248;149.138;2022-07-29T04:44:09;10.90;70.50
39931;DHT22;26635;-35.248;149.138;2022-07-29T04:46:42;10.90;70.50
39931;DHT22;26635;-35.248;149.138;2022-07-29T04:49:15;10.90;70.10
39931;DHT22;26635;-35.248;149.138;2022-07-29T04:51:51;10.90;69.10
39931;DHT22;26635;-35.248;149.138;2022-07-29T04:54:28;10.80;68.10
39931;DHT22;26635;-35.248;149.138;2022-07-29T04:56:58;10.80;69.10
39931;DHT22;26635;-35.248;149.138;2022-07-29T04:59:29;10.80;70.40
39931;DHT22;26635;-35.248;149.138;2022-07-29T05:02:01;10.70;70.40
39931;DHT22;26635;-35.248;149.138;2022-07-29T05:04:33;10.70;68.70
39931;DHT22;26635;-35.248;149.138;2022-07-29T05:07:10;10.60;69.40
39931;DHT22;26635;-35.248;149.138;2022-07-29T05:09:42;10.50;70.10
39931;DHT22;26635;-35.248;149.138;2022-07-29T05:12:13;10.40;71.70
39931;DHT22;26635;-35.248;149.138;2022-07-29T05:14:44;10.40;73.20
39931;DHT22;26635;-35.248;149.138;2022-07-29T05:17:15;10.30;73.70
39931;DHT22;26635;-35.248;149.138;2022-07-29T05:19:46;10.20;74.00
39931;DHT22;26635;-35.248;149.138;2022-07-29T05:22:19;10.10;72.90
39931;DHT22;26635;-35.248;149.138;2022-07-29T05:24:50;10.10;73.20
39931;DHT22;26635;-35.248;149.138;2022-07-29T05:27:22;10.10;74.20
39931;DHT22;26635;-35.248;149.138;2022-07-29T05:29:54;10.10;74.10
39931;DHT22;26635;-35.248;149.138;2022-07-29T05:32:25;10.00;73.70
39931;DHT22;26635;-35.248;149.138;2022-07-29T05:34:55;10.00;73.90
39931;DHT22;26635;-35.248;149.138;2022-07-29T05:37:26;10.00;74.50
39931;DHT22;26635;-35.248;149.138;2022-07-29T05:39:58;10.00;74.80
39931;DHT22;26635;-35.248;149.138;2022-07-29T05:42:29;10.00;74.30
39931;DHT22;26635;-35.248;149.138;2022-07-29T05:45:00;10.00;72.60
39931;DHT22;26635;-35.248;149.138;2022-07-29T05:47:36;10.00;71.30
39931;DHT22;26635;-35.248;149.138;2022-07-29T05:50:07;10.00;67.70
39931;DHT22;26635;-35.248;149.138;2022-07-29T05:52:38;10.00;68.60
39931;DHT22;26635;-35.248;149.138;2022-07-29T05:55:09;9.90;71.00
39931;DHT22;26635;-35.248;149.138;2022-07-29T05:57:40;9.90;69.90
39931;DHT22;26635;-35.248;149.138;2022-07-29T06:00:13;9.80;67.40
39931;DHT22;26635;-35.248;149.138;2022-07-29T06:02:44;9.80;69.10
39931;DHT22;26635;-35.248;149.138;2022-07-29T06:05:15;9.80;69.40
39931;DHT22;26635;-35.248;149.138;2022-07-29T06:07:45;9.80;69.10
39931;DHT22;26635;-35.248;149.138;2022-07-29T06:10:18;9.80;69.80
39931;DHT22;26635;-35.248;149.138;2022-07-29T06:12:56;9.80;69.90
39931;DHT22;26635;-35.248;149.138;2022-07-29T06:15:28;9.80;69.80
39931;DHT22;26635;-35.248;149.138;2022-07-29T06:18:03;9.90;68.70
39931;DHT22;26635;-35.248;149.138;2022-07-29T06:20:33;9.90;67.40
39931;DHT22;26635;-35.248;149.138;2022-07-29T06:23:04;9.90;65.80
39931;DHT22;26635;-35.248;149.138;2022-07-29T06:25:35;9.90;66.70
39931;DHT22;26635;-35.248;149.138;2022-07-29T06:28:06;9.90;65.70
39931;DHT22;26635;-35.248;149.138;2022-07-29T06:30:39;9.90;67.10
39931;DHT22;26635;-35.248;149.138;2022-07-29T06:33:17;9.90;67.90
39931;DHT22;26635;-35.248;149.138;2022-07-29T06:35:48;9.90;67.50
39931;DHT22;26635;-35.248;149.138;2022-07-29T06:38:22;9.80;68.20
39931;DHT22;26635;-35.248;149.138;2022-07-29T06:41:01;9.80;68.90
39931;DHT22;26635;-35.248;149.138;2022-07-29T06:43:36;9.70;68.00
39931;DHT22;26635;-35.248;149.138;2022-07-29T06:46:20;9.60;67.30
39931;DHT22;26635;-35.248;149.138;2022-07-29T06:48:52;9.50;65.70
39931;DHT22;26635;-35.248;149.138;2022-07-29T06:51:23;9.50;66.70
39931;DHT22;26635;-35.248;149.138;2022-07-29T06:53:54;9.40;68.70
39931;DHT22;26635;-35.248;149.138;2022-07-29T06:56:31;9.30;66.90
39931;DHT22;26635;-35.248;149.138;2022-07-29T06:59:07;9.30;66.50
39931;DHT22;26635;-35.248;149.138;2022-07-29T07:01:42;9.20;66.40
39931;DHT22;26635;-35.248;149.138;2022-07-29T07:04:13;9.10;68.40
39931;DHT22;26635;-35.248;149.138;2022-07-29T07:06:44;9.00;68.80
39931;DHT22;26635;-35.248;149.138;2022-07-29T07:09:16;9.00;70.20
39931;DHT22;26635;-35.248;149.138;2022-07-29T07:11:48;8.90;70.80
39931;DHT22;26635;-35.248;149.138;2022-07-29T07:14:18;8.80;68.80
39931;DHT22;26635;-35.248;149.138;2022-07-29T07:16:49;8.70;69.70
39931;DHT22;26635;-35.248;149.138;2022-07-29T07:19:21;8.60;71.70
39931;DHT22;26635;-35.248;149.138;2022-07-29T07:21:53;8.50;70.80
39931;DHT22;26635;-35.248;149.138;2022-07-29T07:24:28;8.40;72.10
39931;DHT22;26635;-35.248;149.138;2022-07-29T07:27:00;8.30;70.80
39931;DHT22;26635;-35.248;149.138;2022-07-29T07:29:35;8.30;69.70
39931;DHT22;26635;-35.248;149.138;2022-07-29T07:32:06;8.20;69.00
39931;DHT22;26635;-35.248;149.138;2022-07-29T07:34:38;8.20;72.20
39931;DHT22;26635;-35.248;149.138;2022-07-29T07:37:09;8.10;71.70
39931;DHT22;26635;-35.248;149.138;2022-07-29T07:39:42;8.00;71.60
39931;DHT22;26635;-35.248;149.138;2022-07-29T07:42:13;8.00;71.60
39931;DHT22;26635;-35.248;149.138;2022-07-29T07:44:44;8.00;71.60
39931;DHT22;26635;-35.248;149.138;2022-07-29T07:47:38;8.00;71.60
39931;DHT22;26635;-35.248;149.138;2022-07-29T07:50:11;7.90;69.60
39931;DHT22;26635;-35.248;149.138;2022-07-29T07:52:54;7.90;71.60
39931;DHT22;26635;-35.248;149.138;2022-07-29T07:55:27;7.90;71.80
39931;DHT22;26635;-35.248;149.138;2022-07-29T07:58:18;7.90;73.80
39931;DHT22;26635;-35.248;149.138;2022-07-29T08:00:50;7.80;74.10
39931;DHT22;26635;-35.248;149.138;2022-07-29T08:03:21;7.80;74.00
39931;DHT22;26635;-35.248;149.138;2022-07-29T08:05:52;7.70;72.40
39931;DHT22;26635;-35.248;149.138;2022-07-29T08:08:28;7.70;73.90
39931;DHT22;26635;-35.248;149.138;2022-07-29T08:10:59;7.60;75.00
39931;DHT22;26635;-35.248;149.138;2022-07-29T08:13:37;7.50;74.90
39931;DHT22;26635;-35.248;149.138;2022-07-29T08:16:08;7.40;75.10
39931;DHT22;26635;-35.248;149.138;2022-07-29T08:18:44;7.40;75.10
39931;DHT22;26635;-35.248;149.138;2022-07-29T08:21:17;7.30;74.10
39931;DHT22;26635;-35.248;149.138;2022-07-29T08:23:48;7.20;76.10
39931;DHT22;26635;-35.248;149.138;2022-07-29T08:26:28;7.20;75.20
39931;DHT22;26635;-35.248;149.138;2022-07-29T08:29:00;7.10;75.30
39931;DHT22;26635;-35.248;149.138;2022-07-29T08:31:31;7.00;76.30
39931;DHT22;26635;-35.248;149.138;2022-07-29T08:34:05;6.90;76.40
39931;DHT22;26635;-35.248;149.138;2022-07-29T08:36:36;6.80;77.20
39931;DHT22;26635;-35.248;149.138;2022-07-29T08:39:09;6.70;77.30
39931;DHT22;26635;-35.248;149.138;2022-07-29T08:41:41;6.70;77.70
39931;DHT22;26635;-35.248;149.138;2022-07-29T08:44:24;6.70;75.10
39931;DHT22;26635;-35.248;149.138;2022-07-29T08:46:58;6.70;74.70
39931;DHT22;26635;-35.248;149.138;2022-07-29T08:49:28;6.80;74.80
39931;DHT22;26635;-35.248;149.138;2022-07-29T08:52:01;6.80;75.20
39931;DHT22;26635;-35.248;149.138;2022-07-29T08:54:32;6.80;74.60
39931;DHT22;26635;-35.248;149.138;2022-07-29T08:57:05;6.80;75.50
39931;DHT22;26635;-35.248;149.138;2022-07-29T08:59:40;6.80;75.90
39931;DHT22;26635;-35.248;149.138;2022-07-29T09:02:22;6.70;76.30
39931;DHT22;26635;-35.248;149.138;2022-07-29T09:04:53;6.60;76.30
39931;DHT22;26635;-35.248;149.138;2022-07-29T09:07:25;6.50;74.70
39931;DHT22;26635;-35.248;149.138;2022-07-29T09:10:03;6.50;75.50
39931;DHT22;26635;-35.248;149.138;2022-07-29T09:12:36;6.40;75.70
39931;DHT22;26635;-35.248;149.138;2022-07-29T09:15:08;6.30;76.30
39931;DHT22;26635;-35.248;149.138;2022-07-29T09:17:46;6.20;77.00
39931;DHT22;26635;-35.248;149.138;2022-07-29T09:20:22;6.10;78.30
39931;DHT22;26635;-35.248;149.138;2022-07-29T09:22:55;6.00;78.90
39931;DHT22;26635;-35.248;149.138;2022-07-29T09:25:36;5.80;79.60
39931;DHT22;26635;-35.248;149.138;2022-07-29T09:28:12;5.70;79.90
39931;DHT22;26635;-35.248;149.138;2022-07-29T09:30:54;5.70;79.50
39931;DHT22;26635;-35.248;149.138;2022-07-29T09:33:32;5.70;79.80
39931;DHT22;26635;-35.248;149.138;2022-07-29T09:36:14;5.60;79.50
39931;DHT22;26635;-35.248;149.138;2022-07-29T09:39:00;5.60;79.40
39931;DHT22;26635;-35.248;149.138;2022-07-29T09:41:51;5.60;80.50
39931;DHT22;26635;-35.248;149.138;2022-07-29T09:44:27;5.40;82.40
39931;DHT22;26635;-35.248;149.138;2022-07-29T09:47:16;5.30;81.40
39931;DHT22;26635;-35.248;149.138;2022-07-29T09:49:57;5.20;81.50
39931;DHT22;26635;-35.248;149.138;2022-07-29T09:52:30;5.10;81.80
39931;DHT22;26635;-35.248;149.138;2022-07-29T09:55:12;5.00;81.40
39931;DHT22;26635;-35.248;149.138;2022-07-29T09:58:20;4.90;82.10
39931;DHT22;26635;-35.248;149.138;2022-07-29T10:01:29;4.90;83.20
39931;DHT22;26635;-35.248;149.138;2022-07-29T10:04:11;4.80;83.60
39931;DHT22;26635;-35.248;149.138;2022-07-29T10:10:51;4.70;84.40
39931;DHT22;26635;-35.248;149.138;2022-07-29T10:13:53;4.60;84.80
39931;DHT22;26635;-35.248;149.138;2022-07-29T10:16:27;4.50;84.40
39931;DHT22;26635;-35.248;149.138;2022-07-29T10:19:10;4.40;85.30
39931;DHT22;26635;-35.248;149.138;2022-07-29T10:37:03;4.00;86.50
39931;DHT22;26635;-35.248;149.138;2022-07-29T20:58:20;-1.50;91.20
39931;DHT22;26635;-35.248;149.138;2022-07-29T21:00:53;-1.60;91.00
39931;DHT22;26635;-35.248;149.138;2022-07-29T21:03:27;-1.60;91.10
39931;DHT22;26635;-35.248;149.138;2022-07-29T21:06:08;-1.60;91.30
39931;DHT22;26635;-35.248;149.138;2022-07-29T21:08:53;-1.70;91.40
39931;DHT22;26635;-35.248;149.138;2022-07-29T21:11:30;-1.70;91.50
39931;DHT22;26635;-35.248;149.138;2022-07-29T21:14:12;-1.60;92.10
39931;DHT22;26635;-35.248;149.138;2022-07-29T21:17:14;-1.70;91.40
39931;DHT22;26635;-35.248;149.138;2022-07-29T21:20:18;-1.70;91.40
39931;DHT22;26635;-35.248;149.138;2022-07-29T21:22:51;-1.70;91.30
39931;DHT22;26635;-35.248;149.138;2022-07-29T21:25:29;-1.70;91.30
39931;DHT22;26635;-35.248;149.138;2022-07-29T21:28:12;-1.70;91.50
39931;DHT22;26635;-35.248;149.138;2022-07-29T21:31:09;-1.70;91.60
39931;DHT22;26635;-35.248;149.138;2022-07-29T21:33:54;-1.60;91.40
39931;DHT22;26635;-35.248;149.138;2022-07-29T21:36:29;-1.60;91.60
39931;DHT22;26635;-35.248;149.138;2022-07-29T21:39:17;-1.60;91.60
39931;DHT22;26635;-35.248;149.138;2022-07-29T21:41:50;-1.60;91.30
39931;DHT22;26635;-35.248;149.138;2022-07-29T21:44:30;-1.60;91.40
39931;DHT22;26635;-35.248;149.138;2022-07-29T21:47:15;-1.50;91.70
39931;DHT22;26635;-35.248;149.138;2022-07-29T21:49:51;-1.50;91.50
39931;DHT22;26635;-35.248;149.138;2022-07-29T21:52:25;-1.50;91.70
39931;DHT22;26635;-35.248;149.138;2022-07-29T21:55:04;-1.40;92.00
39931;DHT22;26635;-35.248;149.138;2022-07-29T21:57:46;-1.40;92.00
39931;DHT22;26635;-35.248;149.138;2022-07-29T22:00:25;-1.30;91.90
39931;DHT22;26635;-35.248;149.138;2022-07-29T22:03:01;-1.30;92.10
39931;DHT22;26635;-35.248;149.138;2022-07-29T22:05:35;-1.20;92.30
39931;DHT22;26635;-35.248;149.138;2022-07-29T22:08:07;-1.10;92.30
39931;DHT22;26635;-35.248;149.138;2022-07-29T22:10:40;-1.10;92.50
39931;DHT22;26635;-35.248;149.138;2022-07-29T22:13:17;-1.00;92.90
39931;DHT22;26635;-35.248;149.138;2022-07-29T22:15:48;-0.90;92.60
39931;DHT22;26635;-35.248;149.138;2022-07-29T22:18:19;-0.70;92.40
39931;DHT22;26635;-35.248;149.138;2022-07-29T22:21:04;-0.60;92.30
39931;DHT22;26635;-35.248;149.138;2022-07-29T22:23:36;-0.50;92.20
39931;DHT22;26635;-35.248;149.138;2022-07-29T22:26:12;-0.40;91.80
39931;DHT22;26635;-35.248;149.138;2022-07-29T22:28:44;-0.40;91.90
39931;DHT22;26635;-35.248;149.138;2022-07-29T22:31:16;-0.30;91.80
39931;DHT22;26635;-35.248;149.138;2022-07-29T22:33:51;-0.20;91.70
39931;DHT22;26635;-35.248;149.138;2022-07-29T22:36:24;-0.10;91.80
39931;DHT22;26635;-35.248;149.138;2022-07-29T22:38:59;0.00;91.90
39931;DHT22;26635;-35.248;149.138;2022-07-29T22:41:43;0.10;91.70
39931;DHT22;26635;-35.248;149.138;2022-07-29T22:44:25;0.20;91.60
39931;DHT22;26635;-35.248;149.138;2022-07-29T22:46:58;0.20;91.60
39931;DHT22;26635;-35.248;149.138;2022-07-29T22:49:32;0.40;91.60
39931;DHT22;26635;-35.248;149.138;2022-07-29T22:52:05;0.50;91.30
39931;DHT22;26635;-35.248;149.138;2022-07-29T22:54:46;0.60;91.20
39931;DHT22;26635;-35.248;149.138;2022-07-29T22:57:27;0.70;90.80
39931;DHT22;26635;-35.248;149.138;2022-07-29T23:00:02;0.80;90.60
39931;DHT22;26635;-35.248;149.138;2022-07-29T23:02:39;1.00;90.60
39931;DHT22;26635;-35.248;149.138;2022-07-29T23:05:15;1.10;90.50
39931;DHT22;26635;-35.248;149.138;2022-07-29T23:07:48;1.20;90.30
39931;DHT22;26635;-35.248;149.138;2022-07-29T23:11:36;1.30;90.20
39931;DHT22;26635;-35.248;149.138;2022-07-29T23:15:28;1.50;90.40
39931;DHT22;26635;-35.248;149.138;2022-07-29T23:18:24;1.70;89.30
39931;DHT22;26635;-35.248;149.138;2022-07-29T23:22:07;1.80;88.90
